Time;durP1;ratioP1;P1;durP2;ratioP2;P2;SDS_P1;SDS_P2;PMS_P1;PMS_P2;Temp;Humidity;BMP_temperature;BMP_pressure;BME280_temperature;BME280_humidity;BME280_pressure;Samples;Min_cycle;Max_cycle;Signal;HPM_P1;HPM_P2
2022/08/16 00:00:27;;;;;;;6.95;5.95;;;18.50;99.90;;;;;;4388677;32;20082;-69
2022/08/16 00:02:55;;;;;;;9.80;6.18;;;18.60;99.90;;;;;;4401961;32;19961;-69
2022/08/16 00:05:24;;;;;;;7.47;5.62;;;18.40;99.90;;;;;;4392190;32;20035;-69
2022/08/16 00:07:54;;;;;;;7.12;6.43;;;18.50;99.90;;;;;;4389850;32;20110;-69
2022/08/16 00:10:21;;;;;;;7.70;6.10;;;18.50;99.90;;;;;;4391091;32;20000;-69
2022/08/16 00:12:49;;;;;;;8.45;6.12;;;18.50;99.90;;;;;;4392740;32;19977;-69
2022/08/16 00:15:19;;;;;;;9.60;6.90;;;18.50;99.90;;;;;;4392186;32;19994;-69
2022/08/16 00:17:46;;;;;;;6.90;6.00;;;18.60;99.90;;;;;;4394147;32;19987;-69
2022/08/16 00:20:13;;;;;;;7.55;6.30;;;18.60;99.90;;;;;;4393444;32;19991;-69
2022/08/16 00:22:42;;;;;;;8.50;6.45;;;18.60;99.90;;;;;;4386066;32;19961;-69
2022/08/16 00:25:14;;;;;;;7.97;6.12;;;18.60;99.90;;;;;;4394176;32;19995;-69
2022/08/16 00:27:41;;;;;;;7.30;5.87;;;18.60;99.90;;;;;;4400591;32;19959;-70
2022/08/16 00:30:12;;;;;;;9.10;6.32;;;18.50;99.90;;;;;;4404782;32;20034;-69
2022/08/16 00:32:40;;;;;;;7.78;5.80;;;18.60;99.90;;;;;;4393943;32;19963;-69
2022/08/16 00:35:10;;;;;;;8.95;6.22;;;18.60;99.90;;;;;;4396384;32;19966;-69
2022/08/16 00:37:37;;;;;;;9.75;6.93;;;18.60;99.90;;;;;;4400591;32;20041;-69
2022/08/16 00:40:06;;;;;;;9.45;7.65;;;18.40;99.90;;;;;;4392698;32;19961;-69
2022/08/16 00:42:35;;;;;;;8.27;6.45;;;18.40;99.90;;;;;;4382438;32;20132;-69
2022/08/16 00:45:07;;;;;;;8.48;7.22;;;18.40;99.90;;;;;;4393297;32;19990;-69
2022/08/16 00:47:36;;;;;;;6.85;5.80;;;18.40;99.90;;;;;;4397904;32;20123;-69
2022/08/16 00:50:05;;;;;;;8.15;6.25;;;18.50;99.90;;;;;;4384057;32;20170;-69
2022/08/16 00:52:31;;;;;;;8.25;6.53;;;18.60;99.90;;;;;;4398863;32;19991;-69
2022/08/16 00:54:59;;;;;;;10.68;6.82;;;18.60;99.90;;;;;;4400608;32;20108;-69
2022/08/16 00:57:26;;;;;;;8.25;6.30;;;18.60;99.90;;;;;;4390140;32;19962;-69
2022/08/16 00:59:54;;;;;;;8.15;5.90;;;18.70;99.90;;;;;;4397929;32;19966;-69
2022/08/16 01:02:20;;;;;;;8.70;6.40;;;18.70;99.90;;;;;;4391065;32;19964;-69
2022/08/16 01:04:47;;;;;;;8.55;6.00;;;18.70;99.90;;;;;;4395960;32;19977;-69
2022/08/16 01:07:14;;;;;;;8.35;6.30;;;18.70;99.90;;;;;;4382788;32;20041;-69
2022/08/16 01:09:41;;;;;;;9.18;6.00;;;18.80;99.90;;;;;;4394755;32;19968;-69
2022/08/16 01:12:10;;;;;;;10.02;6.40;;;18.90;99.90;;;;;;4402067;32;19960;-69
2022/08/16 01:14:42;;;;;;;9.35;6.37;;;18.90;99.90;;;;;;4400378;32;19961;-69
2022/08/16 01:17:12;;;;;;;10.35;6.18;;;18.90;99.90;;;;;;4396470;32;20154;-69
2022/08/16 01:19:44;;;;;;;9.75;6.22;;;18.90;99.90;;;;;;4403219;32;19992;-69
2022/08/16 01:22:18;;;;;;;7.95;5.78;;;18.90;99.90;;;;;;4404453;32;19992;-69
2022/08/16 01:24:50;;;;;;;8.05;6.05;;;18.90;99.90;;;;;;4403783;32;19960;-69
2022/08/16 01:27:21;;;;;;;10.10;6.30;;;19.00;99.90;;;;;;4398920;32;19989;-69
2022/08/16 01:29:54;;;;;;;8.32;6.80;;;18.90;99.90;;;;;;4398067;32;20003;-69
2022/08/16 01:32:20;;;;;;;9.55;6.37;;;19.00;99.90;;;;;;4397358;32;19998;-69
2022/08/16 01:34:47;;;;;;;10.15;6.15;;;18.90;99.90;;;;;;4392077;32;19994;-69
2022/08/16 01:37:15;;;;;;;8.90;6.47;;;18.90;99.90;;;;;;4400677;32;19976;-69
2022/08/16 01:39:42;;;;;;;7.55;6.00;;;18.80;99.90;;;;;;4401691;32;20010;-69
2022/08/16 01:42:10;;;;;;;7.85;5.95;;;18.80;99.90;;;;;;4392109;32;19979;-69
2022/08/16 01:44:38;;;;;;;7.30;6.22;;;18.80;99.90;;;;;;4406842;32;19975;-69
2022/08/16 01:47:05;;;;;;;14.63;8.07;;;18.70;99.90;;;;;;4400350;32;19961;-69
2022/08/16 01:49:37;;;;;;;7.37;6.00;;;18.70;99.90;;;;;;4391674;32;19962;-69
2022/08/16 01:52:07;;;;;;;8.63;6.47;;;18.80;99.90;;;;;;4394146;32;19966;-69
2022/08/16 01:54:35;;;;;;;8.65;5.75;;;18.70;99.90;;;;;;4393756;32;20155;-69
2022/08/16 01:57:02;;;;;;;6.68;5.80;;;18.80;99.90;;;;;;4398764;32;20131;-69
2022/08/16 01:59:31;;;;;;;10.38;5.90;;;18.80;99.90;;;;;;4395498;32;20005;-69
2022/08/16 02:01:59;;;;;;;9.75;5.78;;;18.90;99.90;;;;;;4388691;32;19994;-69
2022/08/16 02:04:27;;;;;;;10.27;5.93;;;18.90;99.90;;;;;;4391338;32;19958;-69
2022/08/16 02:06:54;;;;;;;8.82;6.20;;;18.90;99.90;;;;;;4393622;32;19970;-69
2022/08/16 02:09:24;;;;;;;7.82;5.85;;;19.00;99.90;;;;;;4398659;32;19962;-69
2022/08/16 02:11:54;;;;;;;6.72;5.62;;;19.00;99.90;;;;;;4396227;32;19963;-69
2022/08/16 02:14:22;;;;;;;6.97;5.60;;;19.00;99.90;;;;;;4401862;32;20140;-69
2022/08/16 02:16:50;;;;;;;10.00;6.18;;;19.10;99.90;;;;;;4391276;32;20131;-69
2022/08/16 02:19:18;;;;;;;9.65;5.62;;;19.00;99.90;;;;;;4402863;32;19992;-69
2022/08/16 02:21:48;;;;;;;6.97;6.07;;;19.10;99.90;;;;;;4392910;32;19966;-69
2022/08/16 02:24:15;;;;;;;8.85;5.72;;;19.10;99.90;;;;;;4396120;32;20008;-69
2022/08/16 02:26:42;;;;;;;8.50;5.95;;;19.20;99.90;;;;;;4401044;32;19994;-69
2022/08/16 02:29:09;;;;;;;7.97;6.78;;;19.00;99.90;;;;;;4391061;32;19976;-70
2022/08/16 02:31:36;;;;;;;8.35;6.25;;;19.00;99.90;;;;;;4397288;32;20001;-69
2022/08/16 02:34:05;;;;;;;8.18;6.10;;;19.00;99.90;;;;;;4395699;32;19999;-69
2022/08/16 02:36:31;;;;;;;8.40;6.15;;;19.00;99.90;;;;;;4393673;32;19960;-70
2022/08/16 02:38:58;;;;;;;9.18;6.87;;;19.10;99.90;;;;;;4398739;32;20020;-69
2022/08/16 02:41:25;;;;;;;8.57;7.37;;;19.20;99.90;;;;;;4391660;32;20021;-69
2022/08/16 02:43:51;;;;;;;11.25;7.75;;;19.20;99.90;;;;;;4404090;32;19987;-68
2022/08/16 02:46:18;;;;;;;16.77;12.35;;;19.30;99.90;;;;;;4402963;32;20020;-69
2022/08/16 02:48:45;;;;;;;15.07;10.20;;;19.40;99.90;;;;;;4405781;32;20080;-69
2022/08/16 02:51:13;;;;;;;21.40;16.33;;;19.30;99.90;;;;;;4393430;32;19974;-69
2022/08/16 02:53:44;;;;;;;18.17;14.07;;;19.40;99.90;;;;;;4392136;32;19957;-69
2022/08/16 02:56:11;;;;;;;22.27;16.70;;;19.20;99.90;;;;;;4390723;32;19968;-69
2022/08/16 02:58:38;;;;;;;21.77;17.23;;;19.20;99.90;;;;;;4398728;32;20022;-69
2022/08/16 03:01:05;;;;;;;14.43;11.68;;;19.20;99.90;;;;;;4390814;32;20009;-69
2022/08/16 03:03:33;;;;;;;17.90;12.95;;;19.20;99.90;;;;;;4395906;32;19955;-69
2022/08/16 03:06:00;;;;;;;16.35;11.35;;;19.50;99.90;;;;;;4398355;32;19972;-68
2022/08/16 03:08:28;;;;;;;14.52;12.15;;;19.50;99.90;;;;;;4399383;32;19968;-69
2022/08/16 03:10:55;;;;;;;17.75;13.32;;;19.40;99.90;;;;;;4395666;32;20011;-68
2022/08/16 03:13:22;;;;;;;16.87;13.57;;;19.40;99.90;;;;;;4396448;32;19994;-69
2022/08/16 03:15:49;;;;;;;14.00;12.23;;;19.40;99.90;;;;;;4386528;32;19969;-69
2022/08/16 03:18:16;;;;;;;9.25;5.90;;;19.30;99.90;;;;;;4394025;32;19996;-69
2022/08/16 03:20:43;;;;;;;14.27;12.77;;;19.40;99.90;;;;;;4404640;32;20137;-70
2022/08/16 03:23:11;;;;;;;14.15;11.52;;;19.40;99.90;;;;;;4396971;32;19961;-70
2022/08/16 03:25:39;;;;;;;13.30;9.05;;;19.10;99.90;;;;;;4393808;32;19976;-70
2022/08/16 03:28:07;;;;;;;13.25;11.57;;;19.10;99.90;;;;;;4401767;32;19991;-70
2022/08/16 03:30:35;;;;;;;12.93;10.77;;;19.10;99.90;;;;;;4403621;32;20028;-70
2022/08/16 03:33:02;;;;;;;8.48;6.95;;;18.90;99.90;;;;;;4398040;32;19992;-70
2022/08/16 03:35:32;;;;;;;10.88;7.75;;;19.00;99.90;;;;;;4401564;32;20132;-70
2022/08/16 03:38:01;;;;;;;10.60;8.57;;;18.90;99.90;;;;;;4397797;32;19990;-70
2022/08/16 03:40:30;;;;;;;11.85;8.07;;;18.80;99.90;;;;;;4393164;32;20004;-70
2022/08/16 03:42:58;;;;;;;9.60;8.07;;;18.70;99.90;;;;;;4400458;32;19990;-70
2022/08/16 03:45:25;;;;;;;8.30;6.32;;;18.60;99.90;;;;;;4393372;32;20007;-70
2022/08/16 03:47:52;;;;;;;7.85;6.55;;;18.60;99.90;;;;;;4395695;32;19993;-70
2022/08/16 03:50:19;;;;;;;8.85;7.07;;;18.50;99.90;;;;;;4397025;32;20001;-70
2022/08/16 03:52:47;;;;;;;8.60;6.87;;;18.50;99.90;;;;;;4385373;32;19992;-70
2022/08/16 03:55:13;;;;;;;8.23;6.60;;;18.40;99.90;;;;;;4405163;32;19991;-70
2022/08/16 03:57:40;;;;;;;8.80;6.50;;;18.30;99.90;;;;;;4399114;32;19973;-70
2022/08/16 04:00:13;;;;;;;7.82;7.03;;;18.20;99.90;;;;;;4398593;32;19964;-70
2022/08/16 04:02:41;;;;;;;7.90;6.85;;;18.10;99.90;;;;;;4395204;32;19964;-70
2022/08/16 04:05:08;;;;;;;9.82;6.97;;;18.10;99.90;;;;;;4392475;32;20022;-70
2022/08/16 04:07:35;;;;;;;10.05;7.30;;;18.10;99.90;;;;;;4396109;32;20009;-70
2022/08/16 04:10:02;;;;;;;8.18;6.90;;;18.00;99.90;;;;;;4401097;32;19993;-70
2022/08/16 04:12:29;;;;;;;12.43;6.75;;;18.00;99.90;;;;;;4392596;32;20008;-70
2022/08/16 04:14:55;;;;;;;7.72;6.93;;;18.00;99.90;;;;;;4399123;32;19999;-70
2022/08/16 04:17:23;;;;;;;9.30;7.18;;;18.00;99.90;;;;;;4395785;32;19993;-70
2022/08/16 04:19:50;;;;;;;7.55;6.72;;;18.00;99.90;;;;;;4399212;32;20019;-70
2022/08/16 04:22:18;;;;;;;10.70;7.40;;;18.10;99.90;;;;;;4399412;32;20147;-70
2022/08/16 04:24:45;;;;;;;9.82;7.05;;;18.00;99.90;;;;;;4390009;32;19969;-70
2022/08/16 04:27:12;;;;;;;9.90;7.35;;;17.80;99.90;;;;;;4389882;32;20046;-70
2022/08/16 04:29:38;;;;;;;9.27;7.57;;;17.80;99.90;;;;;;4393722;32;19992;-69
2022/08/16 04:32:06;;;;;;;8.45;7.18;;;17.90;99.90;;;;;;4399857;32;20044;-70
2022/08/16 04:34:38;;;;;;;9.20;7.32;;;17.90;99.90;;;;;;4393411;32;20078;-70
2022/08/16 04:37:06;;;;;;;9.07;7.43;;;17.80;99.90;;;;;;4393811;32;19978;-70
2022/08/16 04:39:35;;;;;;;8.50;7.20;;;17.80;99.90;;;;;;4389701;32;19959;-69
2022/08/16 04:42:02;;;;;;;10.65;6.90;;;17.80;99.90;;;;;;4391995;32;20130;-70
2022/08/16 04:44:29;;;;;;;9.55;7.35;;;17.80;99.90;;;;;;4399784;32;20001;-70
2022/08/16 04:46:56;;;;;;;8.18;7.05;;;17.70;99.90;;;;;;4392845;32;20063;-70
2022/08/16 04:49:23;;;;;;;11.02;7.20;;;17.70;99.90;;;;;;4402235;32;19959;-70
2022/08/16 04:51:52;;;;;;;10.68;7.45;;;17.70;99.90;;;;;;4392902;32;19993;-70
2022/08/16 04:54:18;;;;;;;10.20;7.70;;;17.70;99.90;;;;;;4389536;32;20003;-70
2022/08/16 04:56:45;;;;;;;9.65;7.30;;;17.70;99.90;;;;;;4394528;32;20069;-70
2022/08/16 04:59:12;;;;;;;11.25;6.90;;;17.70;99.90;;;;;;4382362;32;19957;-70
2022/08/16 05:01:39;;;;;;;9.32;7.90;;;17.70;99.90;;;;;;4394487;32;20016;-70
2022/08/16 05:04:06;;;;;;;9.63;7.70;;;17.70;99.90;;;;;;4405957;32;20004;-70
2022/08/16 05:06:33;;;;;;;10.13;8.15;;;17.60;99.90;;;;;;4406207;32;19991;-70
2022/08/16 05:09:01;;;;;;;9.98;7.93;;;17.60;99.90;;;;;;4399620;32;20139;-70
2022/08/16 05:11:29;;;;;;;10.90;7.53;;;17.70;99.90;;;;;;4393436;32;20142;-70
2022/08/16 05:13:58;;;;;;;9.15;8.02;;;17.80;99.90;;;;;;4399527;32;19972;-70
2022/08/16 05:16:27;;;;;;;10.30;8.10;;;17.90;99.90;;;;;;4401011;32;19995;-70
2022/08/16 05:18:55;;;;;;;8.68;7.53;;;17.80;99.90;;;;;;4401301;32;20024;-70
2022/08/16 05:21:22;;;;;;;8.75;7.80;;;17.80;99.90;;;;;;4401777;32;19993;-70
2022/08/16 05:23:50;;;;;;;10.80;7.28;;;17.80;99.90;;;;;;4394952;32;19961;-70
2022/08/16 05:26:18;;;;;;;11.80;8.35;;;17.90;99.90;;;;;;4393583;32;19987;-70
2022/08/16 05:28:45;;;;;;;9.57;7.62;;;18.10;99.90;;;;;;4401169;32;20010;-70
2022/08/16 05:31:12;;;;;;;10.85;7.70;;;18.00;99.90;;;;;;4398764;32;19993;-70
2022/08/16 05:33:39;;;;;;;9.45;7.43;;;18.00;99.90;;;;;;4407215;32;20042;-70
2022/08/16 05:36:06;;;;;;;9.15;7.40;;;17.90;99.90;;;;;;4397206;32;20026;-70
2022/08/16 05:38:33;;;;;;;9.40;7.45;;;18.10;99.90;;;;;;4397073;32;20020;-70
2022/08/16 05:41:02;;;;;;;8.98;7.95;;;18.30;99.90;;;;;;4399430;32;19966;-70
2022/08/16 05:43:30;;;;;;;11.35;7.47;;;18.30;99.90;;;;;;4403332;32;20071;-70
2022/08/16 05:45:59;;;;;;;10.10;7.78;;;18.50;99.90;;;;;;4399147;32;19990;-70
2022/08/16 05:48:26;;;;;;;9.80;7.00;;;18.70;99.90;;;;;;4394828;32;19997;-70
2022/08/16 05:50:53;;;;;;;8.63;7.45;;;18.50;99.90;;;;;;4394385;32;20168;-70
2022/08/16 05:53:19;;;;;;;9.27;7.05;;;18.40;99.90;;;;;;4391415;32;19964;-70
2022/08/16 05:55:46;;;;;;;7.62;6.70;;;18.50;99.90;;;;;;4395261;32;19968;-70
2022/08/16 05:58:13;;;;;;;9.15;6.78;;;18.60;99.90;;;;;;4393621;32;19994;-70
2022/08/16 06:00:41;;;;;;;7.82;6.65;;;18.70;99.90;;;;;;4391648;32;20007;-70
2022/08/16 06:03:08;;;;;;;9.25;6.68;;;18.90;99.90;;;;;;4385176;32;19976;-70
2022/08/16 06:05:35;;;;;;;10.43;7.22;;;18.90;99.90;;;;;;4397506;32;20041;-70
2022/08/16 06:08:02;;;;;;;9.68;7.00;;;18.90;99.90;;;;;;4391594;32;20012;-70
2022/08/16 06:10:29;;;;;;;9.15;6.57;;;19.10;99.90;;;;;;4400127;32;19959;-70
2022/08/16 06:12:56;;;;;;;10.00;7.05;;;19.20;99.90;;;;;;4394829;32;20029;-70
2022/08/16 06:15:22;;;;;;;8.02;6.75;;;19.30;99.90;;;;;;4393363;32;19990;-70
2022/08/16 06:17:51;;;;;;;8.75;6.97;;;19.40;99.90;;;;;;4403566;32;20017;-70
2022/08/16 06:20:20;;;;;;;8.52;6.72;;;19.50;99.90;;;;;;4394722;32;19971;-70
2022/08/16 06:22:46;;;;;;;9.48;7.00;;;19.60;99.90;;;;;;4385258;32;19978;-70
2022/08/16 06:25:13;;;;;;;10.00;7.15;;;19.80;99.90;;;;;;4401704;32;19989;-70
2022/08/16 06:27:40;;;;;;;10.00;7.55;;;19.90;99.90;;;;;;4394461;32;19960;-70
2022/08/16 06:30:09;;;;;;;9.82;7.07;;;20.10;99.90;;;;;;4395018;32;19998;-70
2022/08/16 06:32:35;;;;;;;7.93;6.68;;;20.20;99.90;;;;;;4400585;32;19985;-70
2022/08/16 06:35:04;;;;;;;8.60;6.62;;;20.50;99.90;;;;;;4390427;32;20023;-70
2022/08/16 06:37:31;;;;;;;9.82;7.00;;;20.60;99.90;;;;;;4385204;32;19959;-70
2022/08/16 06:39:58;;;;;;;9.88;7.32;;;20.60;99.90;;;;;;4398078;32;19993;-70
2022/08/16 06:42:24;;;;;;;9.73;7.22;;;20.60;99.90;;;;;;4392641;32;19993;-70
2022/08/16 06:44:51;;;;;;;9.30;7.22;;;20.30;99.90;;;;;;4395508;32;20004;-70
2022/08/16 06:47:18;;;;;;;7.87;6.78;;;20.40;99.90;;;;;;4403882;32;19991;-70
2022/08/16 06:49:45;;;;;;;8.02;6.60;;;20.80;99.90;;;;;;4396737;32;20136;-70
2022/08/16 06:52:13;;;;;;;8.55;5.82;;;21.50;99.90;;;;;;4396754;32;20041;-70
2022/08/16 06:54:40;;;;;;;8.52;5.60;;;22.30;99.90;;;;;;4394863;32;19989;-70
2022/08/16 06:57:09;;;;;;;9.35;5.65;;;23.50;99.90;;;;;;4392920;32;20027;-70
2022/08/16 06:59:36;;;;;;;7.22;5.18;;;24.50;99.90;;;;;;4402304;32;19984;-70
2022/08/16 07:02:03;;;;;;;6.43;4.93;;;25.40;99.80;;;;;;4391932;32;19959;-70
2022/08/16 07:04:29;;;;;;;9.02;5.80;;;25.90;99.70;;;;;;4391573;32;19989;-70
2022/08/16 07:06:56;;;;;;;7.43;4.57;;;26.50;97.60;;;;;;4390863;32;20022;-70
2022/08/16 07:09:24;;;;;;;6.82;5.00;;;27.00;95.30;;;;;;4391099;32;20000;-71
2022/08/16 07:11:51;;;;;;;5.97;5.25;;;27.50;92.60;;;;;;4395691;32;20017;-70
2022/08/16 07:14:18;;;;;;;6.65;4.55;;;27.60;92.40;;;;;;4403831;32;20049;-70
2022/08/16 07:16:44;;;;;;;7.65;4.03;;;28.00;91.10;;;;;;4394335;32;20044;-70
2022/08/16 07:19:11;;;;;;;6.05;4.15;;;28.80;88.70;;;;;;4390608;32;20022;-69
2022/08/16 07:21:40;;;;;;;5.72;4.07;;;28.80;86.90;;;;;;4397013;32;19958;-70
2022/08/16 07:24:07;;;;;;;5.78;3.97;;;29.30;84.50;;;;;;4394756;32;20029;-71
2022/08/16 07:26:35;;;;;;;6.10;4.25;;;29.80;87.50;;;;;;4394160;32;19959;-70
2022/08/16 07:29:02;;;;;;;6.00;4.00;;;29.60;87.10;;;;;;4394512;32;19957;-70
2022/08/16 07:31:29;;;;;;;6.03;3.90;;;29.10;87.80;;;;;;4391280;32;19989;-70
2022/08/16 07:33:56;;;;;;;5.62;4.00;;;29.30;88.80;;;;;;4393302;32;19981;-70
2022/08/16 07:36:23;;;;;;;5.32;4.00;;;29.50;86.30;;;;;;4398817;32;20143;-70
2022/08/16 07:38:50;;;;;;;6.03;4.47;;;29.30;84.20;;;;;;4395174;32;19993;-70
2022/08/16 07:41:17;;;;;;;5.87;4.10;;;29.40;86.00;;;;;;4391919;32;19959;-70
2022/08/16 07:43:45;;;;;;;8.32;3.70;;;29.60;82.80;;;;;;4391179;32;20138;-71
2022/08/16 07:46:12;;;;;;;12.15;4.22;;;30.20;79.00;;;;;;4391702;32;20100;-70
2022/08/16 07:48:39;;;;;;;8.48;4.28;;;30.00;74.80;;;;;;4395385;32;19962;-69
2022/08/16 07:51:06;;;;;;;6.70;4.18;;;28.80;77.40;;;;;;4394813;32;20157;-70
2022/08/16 07:53:33;;;;;;;5.37;3.80;;;28.70;84.80;;;;;;4393495;32;19989;-70
2022/08/16 07:56:00;;;;;;;8.63;4.30;;;29.60;82.40;;;;;;4403022;32;19975;-70
2022/08/16 07:58:29;;;;;;;6.25;4.25;;;28.30;81.40;;;;;;4399735;32;19991;-70
2022/08/16 08:00:57;;;;;;;7.32;4.30;;;28.30;84.30;;;;;;4390211;32;19974;-69
2022/08/16 08:03:23;;;;;;;5.82;4.68;;;27.50;84.70;;;;;;4403473;32;19952;-70
2022/08/16 08:05:50;;;;;;;9.15;4.32;;;27.30;85.30;;;;;;4391560;32;20000;-69
2022/08/16 08:08:17;;;;;;;8.50;4.25;;;27.00;90.00;;;;;;4400544;32;20040;-71
2022/08/16 08:10:44;;;;;;;6.68;4.32;;;27.70;85.80;;;;;;4400719;32;19972;-69
2022/08/16 08:13:10;;;;;;;8.15;4.45;;;26.60;86.10;;;;;;4398684;32;20046;-69
2022/08/16 08:15:37;;;;;;;8.40;4.85;;;25.80;88.70;;;;;;4397164;32;19961;-70
2022/08/16 08:18:05;;;;;;;6.95;4.60;;;25.40;92.00;;;;;;4403418;32;19990;-71
2022/08/16 08:20:32;;;;;;;8.30;5.12;;;26.70;91.50;;;;;;4403274;32;19999;-69
2022/08/16 08:23:00;;;;;;;8.40;4.28;;;27.80;86.40;;;;;;4395645;32;19996;-69
2022/08/16 08:25:28;;;;;;;7.50;4.55;;;29.30;81.30;;;;;;4401779;32;20012;-69
2022/08/16 08:27:54;;;;;;;6.45;4.20;;;30.60;75.30;;;;;;4392710;32;19959;-69
2022/08/16 08:30:22;;;;;;;5.37;4.40;;;30.50;76.90;;;;;;4394246;32;19963;-70
2022/08/16 08:32:48;;;;;;;6.90;4.40;;;30.00;76.70;;;;;;4398048;32;19991;-70
2022/08/16 08:35:16;;;;;;;7.65;4.85;;;31.20;73.10;;;;;;4400222;32;19962;-70
2022/08/16 08:37:43;;;;;;;6.10;4.12;;;29.80;76.80;;;;;;4385734;32;20051;-70
2022/08/16 08:40:12;;;;;;;5.28;3.65;;;31.50;72.60;;;;;;4390066;32;20042;-71
2022/08/16 08:42:42;;;;;;;9.18;4.60;;;32.00;70.60;;;;;;4390862;32;19972;-70
2022/08/16 08:45:11;;;;;;;5.87;4.00;;;30.70;71.60;;;;;;4395948;32;19964;-70
2022/08/16 08:47:38;;;;;;;5.80;4.25;;;29.50;72.90;;;;;;4394692;32;19988;-71
2022/08/16 08:50:05;;;;;;;6.28;4.20;;;31.10;72.50;;;;;;4404786;32;20045;-70
2022/08/16 08:52:33;;;;;;;6.95;4.90;;;31.80;66.70;;;;;;4394799;32;19968;-70
2022/08/16 08:55:03;;;;;;;5.18;4.28;;;30.40;66.70;;;;;;4401077;32;19972;-71
2022/08/16 08:57:30;;;;;;;7.20;4.55;;;31.50;69.10;;;;;;4393794;32;19964;-70
2022/08/16 08:59:57;;;;;;;5.30;3.78;;;32.60;70.00;;;;;;4392022;32;19996;-70
2022/08/16 09:02:24;;;;;;;7.87;4.72;;;33.50;66.90;;;;;;4381052;32;19993;-70
2022/08/16 09:04:51;;;;;;;5.28;4.22;;;34.40;62.50;;;;;;4389448;32;19959;-70
2022/08/16 09:07:18;;;;;;;5.68;4.30;;;33.90;59.90;;;;;;4403245;32;19991;-72
2022/08/16 09:09:46;;;;;;;5.28;3.78;;;34.40;61.80;;;;;;4393706;32;19991;-72
2022/08/16 09:12:13;;;;;;;4.75;4.18;;;33.80;55.70;;;;;;4398030;32;19961;-72
2022/08/16 09:14:42;;;;;;;6.00;4.20;;;32.20;62.30;;;;;;4394789;32;20022;-71
2022/08/16 09:17:09;;;;;;;7.00;4.30;;;31.80;62.30;;;;;;4386137;32;20019;-68
2022/08/16 09:19:36;;;;;;;5.25;3.90;;;33.30;65.60;;;;;;4394141;32;20136;-69
2022/08/16 09:22:04;;;;;;;5.43;3.97;;;34.70;59.90;;;;;;4394269;32;20120;-70
2022/08/16 09:24:31;;;;;;;6.55;4.25;;;34.50;59.10;;;;;;4389485;32;19968;-69
2022/08/16 09:26:59;;;;;;;5.80;4.12;;;33.40;57.20;;;;;;4391943;32;19970;-69
2022/08/16 09:29:26;;;;;;;6.45;4.05;;;31.00;61.60;;;;;;4397926;32;20019;-70
2022/08/16 09:31:56;;;;;;;6.37;4.10;;;33.80;65.10;;;;;;4407175;32;19995;-68
2022/08/16 09:34:23;;;;;;;5.28;3.55;;;36.50;59.60;;;;;;4404147;32;20123;-68
2022/08/16 09:36:50;;;;;;;3.80;3.35;;;38.10;55.00;;;;;;4404000;32;20021;-68
2022/08/16 09:39:17;;;;;;;6.50;4.12;;;38.30;51.20;;;;;;4397763;32;19977;-71
2022/08/16 09:41:50;;;;;;;6.75;3.60;;;39.00;53.00;;;;;;4399397;32;19962;-71
2022/08/16 09:44:20;;;;;;;5.18;3.58;;;38.00;53.00;;;;;;4401171;32;19964;-69
2022/08/16 09:46:46;;;;;;;5.95;3.42;;;37.30;54.20;;;;;;4398104;32;19972;-69
2022/08/16 09:49:13;;;;;;;5.97;3.58;;;38.10;52.70;;;;;;4394723;32;19998;-69
2022/08/16 09:51:40;;;;;;;5.43;3.62;;;38.60;51.10;;;;;;4391702;32;20081;-69
2022/08/16 09:54:09;;;;;;;21.90;6.15;;;38.50;53.50;;;;;;4394024;32;19964;-69
2022/08/16 09:56:38;;;;;;;5.97;3.37;;;38.70;52.90;;;;;;4405314;32;19972;-69
2022/08/16 09:59:07;;;;;;;5.55;3.25;;;38.10;48.80;;;;;;4390179;32;20116;-69
2022/08/16 10:01:36;;;;;;;5.97;3.28;;;38.00;49.70;;;;;;4393835;32;19987;-69
2022/08/16 10:04:04;;;;;;;5.90;3.80;;;38.00;52.00;;;;;;4406618;32;19989;-68
2022/08/16 10:06:31;;;;;;;3.90;3.28;;;38.90;51.20;;;;;;4389398;32;19962;-69
2022/08/16 10:08:58;;;;;;;3.42;3.05;;;39.50;49.40;;;;;;4401872;32;20134;-69
2022/08/16 10:14:09;;;;;;;6.00;2.92;;;39.00;50.10;;;;;;4393518;32;20048;-69
2022/08/16 10:16:37;;;;;;;5.07;3.28;;;38.50;50.90;;;;;;4400299;32;20016;-69
2022/08/16 10:19:03;;;;;;;4.45;2.90;;;38.40;50.30;;;;;;4401699;32;19993;-69
2022/08/16 10:21:30;;;;;;;3.75;2.80;;;38.00;47.90;;;;;;4382274;32;19994;-69
2022/08/16 10:23:57;;;;;;;3.28;2.72;;;39.80;46.70;;;;;;4392658;32;19967;-69
2022/08/16 10:26:24;;;;;;;4.22;3.00;;;37.00;46.20;;;;;;4397291;32;20016;-68
2022/08/16 10:28:51;;;;;;;5.90;3.25;;;35.80;47.50;;;;;;4390011;32;19989;-68
2022/08/16 10:31:18;;;;;;;4.62;3.08;;;39.10;48.50;;;;;;4394398;32;20005;-69
2022/08/16 10:33:46;;;;;;;4.68;2.80;;;40.80;47.40;;;;;;4398185;32;19974;-69
2022/08/16 10:36:13;;;;;;;3.17;2.70;;;41.40;47.00;;;;;;4391916;32;19959;-69
2022/08/16 10:38:42;;;;;;;5.30;2.83;;;40.70;45.50;;;;;;4393892;32;19966;-69
2022/08/16 10:41:09;;;;;;;5.35;3.37;;;40.90;45.60;;;;;;4391273;32;19992;-69
2022/08/16 10:43:37;;;;;;;3.67;2.85;;;40.30;47.20;;;;;;4401106;32;19993;-69
2022/08/16 10:46:06;;;;;;;5.07;2.92;;;41.20;45.80;;;;;;4397651;32;19997;-69
2022/08/16 10:48:32;;;;;;;4.95;2.92;;;40.70;45.00;;;;;;4396971;32;20049;-69
2022/08/16 10:51:01;;;;;;;4.22;2.87;;;41.20;44.80;;;;;;4397807;32;19965;-69
2022/08/16 10:53:30;;;;;;;5.22;3.00;;;42.20;45.50;;;;;;4401772;32;19972;-69
2022/08/16 10:55:58;;;;;;;5.00;2.87;;;41.50;43.70;;;;;;4406160;32;19984;-69
2022/08/16 10:58:25;;;;;;;4.53;2.97;;;42.60;42.50;;;;;;4400197;32;20135;-69
2022/08/16 11:00:52;;;;;;;4.70;3.00;;;42.60;42.80;;;;;;4390656;32;20004;-69
2022/08/16 11:03:20;;;;;;;5.43;2.80;;;42.00;43.70;;;;;;4393607;32;19974;-69
2022/08/16 11:05:47;;;;;;;4.60;2.87;;;42.70;43.60;;;;;;4401459;32;20125;-69
2022/08/16 11:08:16;;;;;;;4.25;2.80;;;40.60;44.60;;;;;;4390906;32;20163;-70
2022/08/16 11:10:45;;;;;;;3.17;2.55;;;36.70;47.30;;;;;;4395367;32;20110;-69
2022/08/16 11:13:15;;;;;;;4.03;2.87;;;39.20;47.00;;;;;;4399895;32;19959;-68
2022/08/16 11:15:42;;;;;;;3.62;3.15;;;41.20;45.70;;;;;;4392648;32;19991;-69
2022/08/16 11:18:09;;;;;;;4.55;2.80;;;42.00;43.70;;;;;;4403189;32;19999;-69
2022/08/16 11:20:36;;;;;;;5.15;2.80;;;41.70;42.50;;;;;;4400031;32;20015;-69
2022/08/16 11:23:02;;;;;;;4.57;2.83;;;42.30;43.80;;;;;;4401322;32;20132;-70
2022/08/16 11:25:33;;;;;;;3.45;2.70;;;38.50;45.20;;;;;;4401421;32;20106;-69
2022/08/16 11:28:00;;;;;;;3.75;3.00;;;36.80;47.90;;;;;;4405641;32;20001;-68
2022/08/16 11:30:29;;;;;;;3.97;3.00;;;39.40;47.40;;;;;;4398189;32;20002;-69
2022/08/16 11:32:56;;;;;;;3.75;3.05;;;36.10;47.20;;;;;;4401382;32;19999;-69
2022/08/16 11:35:26;;;;;;;3.92;2.72;;;34.30;50.10;;;;;;4399838;32;20000;-68
2022/08/16 11:37:56;;;;;;;3.33;2.80;;;37.40;47.90;;;;;;4391295;32;19963;-68
2022/08/16 11:40:25;;;;;;;5.65;3.03;;;39.90;46.40;;;;;;4403245;32;19963;-69
2022/08/16 11:42:53;;;;;;;3.58;2.92;;;41.40;43.20;;;;;;4404888;32;20038;-70
2022/08/16 11:45:20;;;;;;;19.42;3.97;;;34.80;49.40;;;;;;4405259;32;19960;-68
2022/08/16 11:47:47;;;;;;;5.35;2.78;;;37.00;47.80;;;;;;4403630;32;19964;-70
2022/08/16 11:50:15;;;;;;;5.30;3.08;;;38.70;47.30;;;;;;4399857;32;19958;-68
2022/08/16 11:52:42;;;;;;;4.28;2.90;;;35.80;49.50;;;;;;4396109;32;19961;-69
2022/08/16 11:55:11;;;;;;;3.83;2.75;;;37.60;46.20;;;;;;4388506;32;19969;-70
2022/08/16 11:57:38;;;;;;;4.07;2.70;;;35.90;47.00;;;;;;4401212;32;20004;-70
2022/08/16 12:00:10;;;;;;;4.78;2.60;;;37.60;47.10;;;;;;4402773;32;20000;-70
2022/08/16 12:02:39;;;;;;;4.32;2.65;;;38.50;46.50;;;;;;4388255;32;19979;-70
2022/08/16 12:05:07;;;;;;;4.22;3.03;;;37.50;47.70;;;;;;4388042;32;19994;-70
2022/08/16 12:07:34;;;;;;;4.55;2.85;;;38.20;47.50;;;;;;4400870;32;19996;-70
2022/08/16 12:10:02;;;;;;;3.33;2.70;;;36.80;47.50;;;;;;4396327;32;19977;-69
2022/08/16 12:12:29;;;;;;;3.50;3.20;;;34.80;51.00;;;;;;4393499;32;20003;-69
2022/08/16 12:14:55;;;;;;;4.72;2.70;;;34.50;53.20;;;;;;4389909;32;20129;-69
2022/08/16 12:17:23;;;;;;;3.00;2.67;;;34.10;51.90;;;;;;4394338;32;19959;-70
2022/08/16 12:19:50;;;;;;;2.67;2.47;;;34.50;52.70;;;;;;4392752;32;20162;-70
2022/08/16 12:22:17;;;;;;;3.85;3.00;;;33.10;51.30;;;;;;4396277;32;19991;-72
2022/08/16 12:24:44;;;;;;;3.65;2.75;;;31.70;56.40;;;;;;4392233;32;19972;-69
2022/08/16 12:27:10;;;;;;;3.90;3.00;;;32.50;56.20;;;;;;4395155;32;20135;-69
2022/08/16 12:29:37;;;;;;;3.95;2.90;;;32.60;57.40;;;;;;4400102;32;19991;-69
2022/08/16 12:32:05;;;;;;;4.37;2.75;;;31.60;55.80;;;;;;4394657;32;19996;-69
2022/08/16 12:34:33;;;;;;;3.85;2.95;;;31.70;54.00;;;;;;4401374;32;19995;-70
2022/08/16 12:37:01;;;;;;;5.10;2.80;;;32.40;55.60;;;;;;4388925;32;19990;-69
2022/08/16 12:39:28;;;;;;;3.87;2.70;;;32.70;56.50;;;;;;4390404;32;19974;-70
2022/08/16 12:41:55;;;;;;;5.30;2.80;;;32.70;52.20;;;;;;4397342;32;19961;-70
2022/08/16 12:44:22;;;;;;;3.37;2.85;;;32.80;54.00;;;;;;4391466;32;19992;-70
2022/08/16 12:48:56;;;;;;;4.18;2.90;;;32.40;52.80;;;;;;4403812;32;19966;-70
2022/08/16 12:49:37;;;;;;;3.60;2.95;;;30.60;54.70;;;;;;4394722;32;19956;-69